Current Weather

Nawabshah

Nawabshah, Pakistan (OPNH)

Report from: Monday, May 23, 2022 1:00 PM PKT
Current time: Monday, May 23, 2022 1:34 PM PKT

Nearby weather
Weather history
Weather forecast

Present weatherHaze
Temperature45.0°C (113.0°F)
Heat index46.0°C (114.8°F)
Dew point15.0°C (59.0°F)
Winds 4 kts (2.1 m/s, 4.6 mph) Southwest (230°)
Visibility1.9 mi. (3 km)
Altimeter29.32 in.Hg (993 mB)
Relative humidity18 %
Density altitude4,249 ft. (1,295 m)
Flight conditions Instrument Meteorological Conditions
Raw dataOPNH 230800Z 23004KT 3000 HZ NSC 45/15 Q0993
An error has occurred. This application may no longer respond until reloaded. Reload 🗙